Time;durP1;ratioP1;P1;durP2;ratioP2;P2;SDS_P1;SDS_P2;PMS_P1;PMS_P2;Temp;Humidity;BMP_temperature;BMP_pressure;BME280_temperature;BME280_humidity;BME280_pressure;Samples;Min_cycle;Max_cycle;Signal;HPM_P1;HPM_P2
2022/04/05 00:01:10;;;;;;;;;;;;;;;7.29;54.60;97449.84;4439963;32;20085;-74
2022/04/05 00:03:56;;;;;;;15.27;6.43;;;;;;;7.80;53.09;97436.66;4439783;32;19973;-74
2022/04/05 00:06:23;;;;;;;12.70;5.50;;;;;;;8.42;51.18;97442.63;4439374;32;20113;-74
2022/04/05 00:08:53;;;;;;;12.93;5.93;;;;;;;7.79;53.24;97440.09;4439643;32;20168;-74
2022/04/05 00:11:20;;;;;;;12.63;5.85;;;;;;;8.75;50.94;97427.44;4439564;32;20093;-74
2022/04/05 00:13:47;;;;;;;15.13;6.03;;;;;;;8.52;51.53;97433.59;4439104;32;20098;-74
2022/04/05 00:16:14;;;;;;;17.30;6.37;;;;;;;8.60;51.04;97429.75;4439557;32;20132;-74
2022/04/05 00:18:41;;;;;;;13.50;5.75;;;;;;;8.76;51.21;97434.25;4439597;32;20077;-74
2022/04/05 00:21:08;;;;;;;14.45;5.95;;;;;;;9.09;49.97;97421.56;4438948;32;20089;-74
2022/04/05 00:23:35;;;;;;;13.85;5.90;;;;;;;9.32;49.52;97415.31;4439426;32;20098;-74
2022/04/05 00:26:03;;;;;;;13.73;5.45;;;;;;;9.37;49.27;97410.81;4439011;32;20112;-74
2022/04/05 00:28:30;;;;;;;12.48;5.53;;;;;;;8.99;50.36;97410.88;4439398;32;20505;-74
2022/04/05 00:30:57;;;;;;;15.20;6.32;;;;;;;8.28;53.28;97410.59;4439312;32;20094;-74
2022/04/05 00:33:24;;;;;;;13.52;5.90;;;;;;;8.78;51.70;97399.81;4438706;32;20460;-74
2022/04/05 00:35:51;;;;;;;15.13;6.50;;;;;;;9.81;48.63;97398.34;4439452;32;20125;-74
2022/04/05 00:38:18;;;;;;;13.55;5.97;;;;;;;9.78;47.87;97406.19;4441446;32;20471;-74
2022/04/05 00:40:45;;;;;;;11.32;5.43;;;;;;;9.60;48.73;97407.13;4441023;32;20073;-74
2022/04/05 00:43:12;;;;;;;13.27;6.07;;;;;;;9.67;48.59;97408.47;4441457;32;20162;-74
2022/04/05 00:45:39;;;;;;;12.57;5.53;;;;;;;9.80;48.70;97414.69;4441270;32;20160;-74
2022/04/05 00:48:07;;;;;;;13.70;6.12;;;;;;;10.17;47.09;97412.84;4427379;32;20085;-74
2022/04/05 00:50:37;;;;;;;14.07;6.20;;;;;;;9.27;49.02;97402.69;4441426;32;20081;-74
2022/04/05 00:53:07;;;;;;;13.27;6.28;;;;;;;9.22;50.39;97409.78;4427605;32;20120;-74
2022/04/05 00:55:35;;;;;;;14.90;6.25;;;;;;;9.12;51.23;97411.94;4440988;32;20372;-74
2022/04/05 00:58:03;;;;;;;15.40;5.78;;;;;;;9.87;48.67;97408.31;4441438;32;20089;-74
2022/04/05 01:00:32;;;;;;;12.93;5.65;;;;;;;9.70;49.50;97411.75;4441224;32;20105;-74
2022/04/05 01:03:00;;;;;;;16.60;6.07;;;;;;;9.92;48.52;97405.53;4440989;32;20161;-74
2022/04/05 01:05:27;;;;;;;13.65;6.07;;;;;;;10.71;46.10;97404.81;4441126;32;20158;-74
2022/04/05 01:07:59;;;;;;;14.25;6.40;;;;;;;11.00;44.68;97394.69;4441374;32;20094;-74
2022/04/05 01:10:28;;;;;;;14.77;6.55;;;;;;;10.27;46.91;97401.16;4427546;32;20480;-74
2022/04/05 01:12:56;;;;;;;12.85;6.10;;;;;;;10.98;45.47;97399.94;4441386;32;20089;-74
2022/04/05 01:15:23;;;;;;;12.32;6.40;;;;;;;11.17;44.86;97394.59;4440937;32;20097;-74
2022/04/05 01:17:52;;;;;;;14.10;6.53;;;;;;;11.35;43.86;97394.47;4441302;32;20105;-74
2022/04/05 01:20:19;;;;;;;13.68;6.35;;;;;;;11.00;45.00;97399.84;4441092;32;20089;-74
2022/04/05 01:22:50;;;;;;;12.20;5.60;;;;;;;11.73;43.08;97395.72;4440857;32;20158;-74
2022/04/05 01:25:18;;;;;;;14.13;5.97;;;;;;;11.90;42.30;97399.94;4427300;32;20260;-74
2022/04/05 01:27:46;;;;;;;14.57;6.07;;;;;;;11.66;42.64;97398.72;4441152;32;20099;-74
2022/04/05 01:30:13;;;;;;;15.75;6.35;;;;;;;11.71;42.41;97399.31;4440823;32;20107;-74
2022/04/05 01:32:40;;;;;;;13.48;6.20;;;;;;;11.54;42.96;97392.53;4441116;32;20137;-74
2022/04/05 01:35:08;;;;;;;11.57;5.70;;;;;;;11.31;43.33;97386.06;4440843;32;20102;-74
2022/04/05 01:37:35;;;;;;;12.82;5.18;;;;;;;10.99;44.12;97390.44;4440773;32;20141;-74
2022/04/05 01:40:03;;;;;;;11.85;5.70;;;;;;;11.11;43.97;97379.44;4441094;32;20085;-74
2022/04/05 01:42:31;;;;;;;11.95;5.50;;;;;;;10.64;45.17;97389.78;4427270;32;20164;-74
2022/04/05 01:44:57;;;;;;;14.23;5.68;;;;;;;10.14;46.57;97381.16;4440571;32;20111;-74
2022/04/05 01:47:24;;;;;;;13.30;5.60;;;;;;;9.41;48.82;97378.84;4440853;32;20372;-74
2022/04/05 01:49:52;;;;;;;13.93;5.72;;;;;;;9.89;47.86;97375.59;4441061;32;20077;-74
2022/04/05 01:52:19;;;;;;;13.62;5.72;;;;;;;9.23;49.02;97375.41;4440638;32;20137;-74
2022/04/05 01:54:46;;;;;;;13.57;5.82;;;;;;;9.15;50.07;97374.97;4440929;32;20101;-74
2022/04/05 01:57:13;;;;;;;13.38;6.00;;;;;;;8.91;50.62;97372.63;4440775;32;20164;-74
2022/04/05 01:59:40;;;;;;;13.62;5.65;;;;;;;8.83;50.94;97374.75;4440979;32;20160;-74
2022/04/05 02:02:10;;;;;;;13.70;5.53;;;;;;;8.57;51.70;97365.63;4441042;32;20801;-74
2022/04/05 02:04:37;;;;;;;15.18;5.65;;;;;;;9.08;50.69;97363.28;4440572;32;20111;-74
2022/04/05 02:07:10;;;;;;;14.50;5.68;;;;;;;8.95;50.94;97355.31;4440978;32;20404;-74
2022/04/05 02:09:36;;;;;;;13.10;6.05;;;;;;;8.71;51.91;97359.84;4427209;32;20073;-74
2022/04/05 02:12:04;;;;;;;13.15;5.57;;;;;;;8.58;52.91;97356.19;4440578;32;20112;-74
2022/04/05 02:14:31;;;;;;;12.55;5.70;;;;;;;8.72;52.16;97351.25;4440770;32;20452;-74
2022/04/05 02:16:58;;;;;;;13.90;5.80;;;;;;;8.52;53.05;97346.19;4426924;32;20572;-74
2022/04/05 02:19:26;;;;;;;14.30;6.30;;;;;;;8.89;52.39;97350.44;4440500;32;20141;-74
2022/04/05 02:21:53;;;;;;;12.57;5.65;;;;;;;9.05;51.35;97348.84;4440799;32;20111;-74
2022/04/05 02:24:20;;;;;;;13.65;6.00;;;;;;;8.22;53.56;97353.50;4440753;32;20176;-74
2022/04/05 02:26:48;;;;;;;13.43;5.45;;;;;;;9.23;51.16;97353.06;4440546;32;20155;-74
2022/04/05 02:29:15;;;;;;;12.93;5.72;;;;;;;9.40;50.75;97359.16;4440771;32;20539;-74
2022/04/05 02:31:42;;;;;;;13.98;5.87;;;;;;;10.30;48.12;97345.09;4440788;32;20375;-74
2022/04/05 02:34:10;;;;;;;14.07;5.95;;;;;;;10.03;48.85;97359.41;4440045;32;20124;-74
2022/04/05 02:36:36;;;;;;;12.63;5.22;;;;;;;11.26;45.17;97351.91;4440708;32;20090;-74
2022/04/05 02:39:05;;;;;;;12.37;5.50;;;;;;;10.26;47.80;97335.88;4440712;32;20136;-74
2022/04/05 02:41:32;;;;;;;14.23;5.97;;;;;;;10.67;47.02;97341.41;4426361;32;20117;-74
2022/04/05 02:43:59;;;;;;;12.57;5.93;;;;;;;11.36;45.21;97340.13;4440628;32;20110;-74
2022/04/05 02:46:26;;;;;;;12.95;5.65;;;;;;;11.63;43.83;97342.91;4440406;32;20140;-74
2022/04/05 02:48:54;;;;;;;11.63;5.32;;;;;;;12.14;42.66;97345.97;4440646;32;20081;-74
2022/04/05 02:51:23;;;;;;;12.27;5.20;;;;;;;12.22;42.38;97350.66;4440659;32;20086;-74
2022/04/05 02:53:50;;;;;;;12.15;5.45;;;;;;;12.18;42.31;97347.41;4440185;32;20089;-75
2022/04/05 02:56:17;;;;;;;11.88;5.15;;;;;;;11.55;43.50;97335.59;4440429;32;20107;-74
2022/04/05 02:58:44;;;;;;;12.95;5.18;;;;;;;11.55;43.64;97335.59;4439748;32;20133;-74
2022/04/05 03:01:10;;;;;;;11.65;5.28;;;;;;;11.51;44.01;97333.28;4426361;32;20153;-74
2022/04/05 03:03:37;;;;;;;13.15;5.25;;;;;;;11.27;44.72;97335.50;4440542;32;20372;-74
2022/04/05 03:06:04;;;;;;;12.50;5.50;;;;;;;11.09;45.20;97329.62;4440268;32;20113;-74
2022/04/05 03:08:31;;;;;;;12.35;5.10;;;;;;;10.19;47.33;97319.03;4440098;32;20203;-74
2022/04/05 03:10:58;;;;;;;13.80;5.72;;;;;;;10.42;46.90;97318.69;4440389;32;20115;-74
2022/04/05 03:13:25;;;;;;;12.20;5.95;;;;;;;9.98;48.21;97320.97;4414021;32;20110;-74
2022/04/05 03:15:52;;;;;;;13.62;5.85;;;;;;;10.62;46.37;97327.91;4439898;32;20176;-74
2022/04/05 03:18:19;;;;;;;14.45;5.50;;;;;;;10.47;46.85;97322.75;4440343;32;20076;-74
2022/04/05 03:20:46;;;;;;;11.88;5.20;;;;;;;10.26;47.37;97323.00;4440166;32;20137;-74
2022/04/05 03:23:13;;;;;;;12.35;5.20;;;;;;;9.70;49.18;97324.16;4439894;32;20111;-74
2022/04/05 03:25:40;;;;;;;;;;;;;;;9.88;48.98;97322.38;4440296;32;20424;-74
2022/04/05 03:28:07;;;;;;;12.40;5.45;;;;;;;9.94;48.65;97323.81;4440449;32;19999;-74
2022/04/05 03:30:34;;;;;;;12.90;5.37;;;;;;;10.30;47.82;97316.75;4439818;32;20097;-74
2022/04/05 03:33:01;;;;;;;15.35;6.12;;;;;;;9.82;48.95;97320.13;4426059;32;20093;-74
2022/04/05 03:35:28;;;;;;;13.65;6.00;;;;;;;9.87;49.02;97320.72;4439608;32;20184;-74
2022/04/05 03:37:55;;;;;;;11.95;5.18;;;;;;;10.08;48.44;97316.19;4440304;32;20630;-74
2022/04/05 03:40:22;;;;;;;13.32;5.65;;;;;;;9.63;49.52;97314.22;4439962;32;20180;-74
2022/04/05 03:42:50;;;;;;;11.80;5.45;;;;;;;9.11;50.78;97316.81;4439699;32;20628;-74
2022/04/05 03:45:17;;;;;;;12.18;5.35;;;;;;;9.23;50.85;97321.34;4439791;32;20107;-74
2022/04/05 03:47:44;;;;;;;13.18;5.35;;;;;;;8.56;53.40;97302.25;4439906;32;20149;-74
2022/04/05 03:50:11;;;;;;;12.65;5.97;;;;;;;9.04;51.84;97303.41;4439598;32;20153;-74
2022/04/05 03:52:38;;;;;;;12.37;5.45;;;;;;;9.11;51.46;97306.50;4439867;32;20089;-74
2022/04/05 03:55:05;;;;;;;13.93;5.87;;;;;;;8.98;52.15;97311.44;4439664;32;20736;-74
2022/04/05 03:57:32;;;;;;;11.95;5.62;;;;;;;9.69;50.50;97311.37;4439417;32;20078;-74
2022/04/05 03:59:59;;;;;;;15.75;6.43;;;;;;;9.47;51.27;97304.72;4439826;32;20138;-74
2022/04/05 04:02:26;;;;;;;15.57;5.80;;;;;;;9.64;50.75;97311.56;4439751;32;20101;-74
2022/04/05 04:04:56;;;;;;;14.55;6.18;;;;;;;9.38;51.38;97305.16;4439299;32;20132;-74
2022/04/05 04:07:23;;;;;;;12.02;5.45;;;;;;;9.67;50.81;97310.59;4439586;32;20103;-74
2022/04/05 04:09:51;;;;;;;14.95;6.25;;;;;;;9.73;50.60;97315.44;4439660;32;20131;-74
2022/04/05 04:12:18;;;;;;;12.63;6.00;;;;;;;9.55;50.59;97319.75;4440861;32;20157;-74
2022/04/05 04:14:45;;;;;;;13.82;5.80;;;;;;;9.35;51.93;97315.59;4441451;32;20101;-74
2022/04/05 04:17:12;;;;;;;13.07;5.53;;;;;;;9.79;50.82;97328.84;4441656;32;20392;-74
2022/04/05 04:19:39;;;;;;;12.77;5.62;;;;;;;10.18;49.82;97324.28;4441228;32;20161;-74
2022/04/05 04:22:06;;;;;;;14.00;6.60;;;;;;;9.98;50.14;97325.31;4441540;32;20128;-74
2022/04/05 04:24:32;;;;;;;11.10;5.30;;;;;;;10.16;49.93;97321.78;4441506;32;20161;-74
2022/04/05 04:26:59;;;;;;;;;;;;;;;10.84;47.77;97316.41;4441928;32;20085;-74
2022/04/05 04:29:26;;;;;;;13.23;5.90;;;;;;;10.85;48.10;97316.34;4441695;32;19977;-74
2022/04/05 04:31:53;;;;;;;15.27;6.20;;;;;;;10.57;48.70;97311.88;4427261;32;20153;-76
2022/04/05 04:34:20;;;;;;;14.57;5.55;;;;;;;10.39;48.95;97307.69;4441147;32;20144;-77
2022/04/05 04:36:47;;;;;;;12.43;5.55;;;;;;;10.34;48.88;97309.69;4441486;32;20106;-76
2022/04/05 04:39:17;;;;;;;13.18;5.75;;;;;;;10.21;49.46;97306.06;4442090;32;20448;-76
2022/04/05 04:41:44;;;;;;;14.20;6.18;;;;;;;9.28;52.49;97312.50;4441750;32;20137;-77
2022/04/05 04:44:11;;;;;;;12.73;5.53;;;;;;;9.64;51.54;97311.56;4441892;32;20145;-77
2022/04/05 04:46:38;;;;;;;11.73;5.35;;;;;;;9.80;51.26;97325.34;4441509;32;20146;-77
2022/04/05 04:49:05;;;;;;;15.15;6.30;;;;;;;9.59;51.66;97326.44;4441934;32;20098;-77
2022/04/05 04:51:32;;;;;;;14.15;5.68;;;;;;;9.32;52.88;97318.34;4441819;32;20105;-77
2022/04/05 04:53:59;;;;;;;13.70;5.95;;;;;;;9.11;53.72;97314.22;4427496;32;20188;-77
2022/04/05 04:56:27;;;;;;;12.15;5.60;;;;;;;9.34;53.12;97308.78;4427913;32;20709;-77
2022/04/05 04:58:54;;;;;;;15.20;5.37;;;;;;;9.35;53.03;97312.19;4441795;32;20108;-77
2022/04/05 05:01:21;;;;;;;13.30;5.80;;;;;;;9.25;53.78;97316.97;4441458;32;20093;-77
2022/04/05 05:03:48;;;;;;;14.27;6.43;;;;;;;9.42;53.47;97318.72;4441734;32;20093;-77
2022/04/05 05:06:15;;;;;;;13.18;5.97;;;;;;;9.03;54.71;97321.47;4441821;32;20139;-77
2022/04/05 05:08:42;;;;;;;12.55;5.95;;;;;;;9.23;54.16;97322.19;4441444;32;20141;-77
2022/04/05 05:11:10;;;;;;;13.88;6.37;;;;;;;9.02;54.65;97322.38;4441774;32;20153;-77
2022/04/05 05:13:37;;;;;;;13.38;6.05;;;;;;;9.13;54.35;97320.13;4441452;32;20097;-77
2022/04/05 05:16:04;;;;;;;15.43;6.32;;;;;;;9.24;54.10;97323.00;4441281;32;20142;-77
2022/04/05 05:18:31;;;;;;;14.02;6.47;;;;;;;9.22;54.14;97307.66;4441846;32;20093;-77
2022/04/05 05:20:58;;;;;;;15.93;6.20;;;;;;;9.37;53.49;97315.56;4440991;32;20106;-77
2022/04/05 05:23:25;;;;;;;15.52;6.78;;;;;;;8.44;56.58;97314.84;4426962;32;20149;-77
2022/04/05 05:25:52;;;;;;;17.23;6.68;;;;;;;8.62;56.82;97316.56;4440859;32;20077;-73
2022/04/05 05:28:19;;;;;;;14.63;6.50;;;;;;;9.00;55.62;97304.47;4440963;32;20149;-73
2022/04/05 05:30:46;;;;;;;;;;;;;;;9.46;54.05;97326.22;4441458;32;20097;-73
2022/04/05 05:33:13;;;;;;;13.50;6.53;;;;;;;9.09;55.08;97319.47;4440851;32;19995;-74
2022/04/05 05:35:41;;;;;;;14.45;6.10;;;;;;;8.99;55.80;97324.22;4440571;32;20104;-74
2022/04/05 05:38:08;;;;;;;14.07;6.25;;;;;;;9.14;55.80;97334.66;4441171;32;20111;-74
2022/04/05 05:40:35;;;;;;;;;;;;;;;9.01;56.42;97341.31;4427580;32;20097;-75
2022/04/05 05:43:04;;;;;;;14.10;6.75;;;;;;;8.96;56.98;97344.12;4426856;32;20048;-74
2022/04/05 05:45:33;;;;;;;15.40;6.43;;;;;;;8.97;57.11;97343.22;4440839;32;20097;-74
2022/04/05 05:48:00;;;;;;;13.73;6.30;;;;;;;9.12;57.03;97339.06;4441160;32;20157;-74
2022/04/05 05:50:27;;;;;;;14.65;6.15;;;;;;;9.64;55.41;97346.81;4440695;32;20157;-73
2022/04/05 05:52:56;;;;;;;14.10;5.85;;;;;;;10.25;53.31;97341.97;4438356;32;20098;-77
2022/04/05 05:55:23;;;;;;;12.80;6.32;;;;;;;9.59;55.96;97335.91;4424948;32;20478;-74
2022/04/05 05:57:50;;;;;;;14.38;5.72;;;;;;;10.06;54.81;97334.31;4439448;32;20157;-75
2022/04/05 06:00:22;;;;;;;13.62;6.18;;;;;;;10.67;53.16;97336.25;4440313;32;20097;-74
2022/04/05 06:02:54;;;;;;;12.85;6.43;;;;;;;10.88;52.33;97343.75;4439951;32;20456;-75
2022/04/05 06:05:25;;;;;;;14.75;6.32;;;;;;;11.66;49.35;97341.87;4425477;32;20119;-75
2022/04/05 06:07:53;;;;;;;13.95;6.37;;;;;;;11.38;49.58;97345.22;4440947;32;20101;-78
2022/04/05 06:10:21;;;;;;;15.20;6.00;;;;;;;10.91;51.55;97334.06;4440337;32;20334;-78
2022/04/05 06:12:49;;;;;;;17.83;6.43;;;;;;;11.02;51.73;97330.88;4426470;32;20093;-78
2022/04/05 06:15:17;;;;;;;13.18;5.78;;;;;;;10.70;52.38;97340.41;4425590;32;20136;-78
2022/04/05 06:17:46;;;;;;;13.73;4.93;;;;;;;10.34;53.44;97338.06;4439933;32;20153;-77
2022/04/05 06:20:16;;;;;;;14.90;6.65;;;;;;;9.94;54.99;97340.09;4440320;32;20152;-76
2022/04/05 06:22:45;;;;;;;14.30;6.00;;;;;;;10.12;54.75;97336.59;4440028;32;20176;-74
2022/04/05 06:25:16;;;;;;;12.80;5.93;;;;;;;10.50;54.55;97340.66;4439083;32;20085;-74
2022/04/05 06:27:44;;;;;;;13.73;6.18;;;;;;;10.81;53.20;97344.97;4440122;32;20341;-75
2022/04/05 06:30:12;;;;;;;14.87;6.50;;;;;;;10.72;53.42;97346.31;4440036;32;20131;-74
2022/04/05 06:32:39;;;;;;;15.00;6.87;;;;;;;10.36;54.35;97344.81;4419884;32;644963;-74
2022/04/05 06:35:08;;;;;;;15.82;5.97;;;;;;;10.35;54.04;97350.03;4438122;32;20477;-74
2022/04/05 06:37:36;;;;;;;12.68;6.20;;;;;;;10.34;54.98;97349.22;4439806;32;20086;-74
2022/04/05 06:40:05;;;;;;;14.48;7.03;;;;;;;10.68;53.72;97352.56;4439909;32;20104;-74
2022/04/05 06:42:33;;;;;;;13.30;5.50;;;;;;;11.12;52.13;97338.97;4440319;32;20152;-74
2022/04/05 06:45:00;;;;;;;13.25;5.60;;;;;;;11.31;51.11;97334.41;4439302;32;20127;-74
2022/04/05 06:47:27;;;;;;;13.23;5.62;;;;;;;11.54;51.15;97335.69;4439760;32;20117;-74
2022/04/05 06:49:54;;;;;;;13.25;5.37;;;;;;;11.87;50.04;97328.56;4439953;32;20105;-74
2022/04/05 06:52:21;;;;;;;12.68;5.37;;;;;;;12.59;46.64;97319.03;4439828;32;20089;-72
2022/04/05 06:54:48;;;;;;;10.48;4.85;;;;;;;12.37;48.02;97314.34;4439011;32;20133;-73
2022/04/05 06:57:15;;;;;;;11.43;5.40;;;;;;;12.44;48.14;97326.00;4439542;32;20132;-74
2022/04/05 06:59:47;;;;;;;12.52;5.10;;;;;;;12.86;46.55;97329.38;4439926;32;20111;-74
2022/04/05 07:02:15;;;;;;;11.45;4.90;;;;;;;12.40;47.43;97331.44;4439710;32;20111;-74
2022/04/05 07:04:42;;;;;;;12.05;5.00;;;;;;;12.21;47.75;97342.06;4438718;32;20077;-74
2022/04/05 07:07:09;;;;;;;11.52;5.10;;;;;;;12.44;46.86;97341.50;4439244;32;20143;-75
2022/04/05 07:09:37;;;;;;;12.50;5.45;;;;;;;12.58;47.50;97342.41;4439254;32;20121;-74
2022/04/05 07:12:07;;;;;;;12.65;4.87;;;;;;;12.68;47.39;97343.50;4439550;32;20150;-75
2022/04/05 07:14:34;;;;;;;10.32;4.68;;;;;;;12.69;46.82;97334.81;4438706;32;20101;-74
2022/04/05 07:17:01;;;;;;;9.73;4.50;;;;;;;12.88;46.13;97339.66;4439545;32;20162;-73
2022/04/05 07:19:28;;;;;;;9.98;4.37;;;;;;;12.77;46.40;97336.94;4439328;32;20094;-74
2022/04/05 07:21:55;;;;;;;9.85;4.80;;;;;;;12.75;46.26;97335.25;4439155;32;20444;-74
2022/04/05 07:24:22;;;;;;;10.10;4.50;;;;;;;12.58;47.36;97335.47;4438547;32;20144;-75
2022/04/05 07:26:49;;;;;;;11.90;4.80;;;;;;;12.65;47.69;97328.16;4439425;32;20441;-74
2022/04/05 07:29:16;;;;;;;12.18;4.60;;;;;;;13.15;45.78;97331.88;4439100;32;20111;-74
2022/04/05 07:31:43;;;;;;;10.90;4.28;;;;;;;12.68;46.63;97318.44;4439471;32;20149;-75
2022/04/05 07:34:10;;;;;;;10.90;4.37;;;;;;;12.81;45.05;97328.03;4437950;32;20428;-75
2022/04/05 07:36:37;;;;;;;10.32;4.65;;;;;;;12.50;45.95;97327.34;4425258;32;20117;-73
2022/04/05 07:39:04;;;;;;;10.02;4.57;;;;;;;12.40;46.10;97326.25;4438864;32;20147;-74
2022/04/05 07:41:31;;;;;;;10.95;4.65;;;;;;;12.89;45.70;97323.22;4438803;32;20103;-74
2022/04/05 07:43:58;;;;;;;9.30;3.97;;;;;;;13.36;44.32;97330.53;4424795;32;20171;-74
2022/04/05 07:46:25;;;;;;;12.07;4.32;;;;;;;12.87;44.54;97330.25;4440650;32;20149;-74
2022/04/05 07:48:52;;;;;;;9.90;4.07;;;;;;;12.50;45.81;97329.94;4440665;32;20150;-74
2022/04/05 07:51:19;;;;;;;11.98;4.60;;;;;;;12.37;46.57;97329.88;4427253;32;20160;-73
2022/04/05 07:53:46;;;;;;;9.63;4.45;;;;;;;12.63;45.88;97332.59;4440124;32;20511;-75
2022/04/05 07:56:13;;;;;;;10.27;4.22;;;;;;;12.43;45.92;97326.06;4440595;32;20168;-74
2022/04/05 07:58:42;;;;;;;9.85;4.50;;;;;;;12.89;45.89;97323.22;4440710;32;20157;-74
2022/04/05 08:01:10;;;;;;;10.18;4.60;;;;;;;12.58;45.91;97329.47;4441130;32;20082;-74
2022/04/05 08:03:38;;;;;;;12.25;4.90;;;;;;;12.81;45.46;97338.38;4439762;32;20077;-74
2022/04/05 08:06:06;;;;;;;12.13;4.85;;;;;;;12.57;46.18;97335.56;4426864;32;20167;-75
2022/04/05 08:08:33;;;;;;;10.80;4.50;;;;;;;13.16;46.34;97347.31;4440463;32;20101;-75
2022/04/05 08:11:20;;;;;;;10.68;4.28;;;;;;;13.66;44.46;97345.00;4440391;32;20508;-75
2022/04/05 08:13:47;;;;;;;9.48;4.32;;;;;;;13.69;43.70;97331.81;4440174;32;20093;-75
2022/04/05 08:16:14;;;;;;;11.20;4.60;;;;;;;14.44;42.44;97337.94;4426549;32;20105;-75
2022/04/05 08:18:41;;;;;;;11.30;4.60;;;;;;;14.52;41.09;97337.44;4440951;32;20090;-75
2022/04/05 08:21:08;;;;;;;10.40;4.75;;;;;;;15.12;39.97;97334.03;4440837;32;20103;-75
2022/04/05 08:23:35;;;;;;;11.27;4.47;;;;;;;15.64;40.20;97341.47;4439493;32;20081;-75
2022/04/05 08:26:02;;;;;;;11.18;4.45;;;;;;;15.80;37.85;97341.97;4439668;32;20106;-75
2022/04/05 08:28:30;;;;;;;8.85;3.75;;;;;;;15.71;38.35;97345.25;4440908;32;20739;-75
2022/04/05 08:31:09;;;;;;;10.82;4.22;;;;;;;15.74;37.77;97344.22;4439687;32;20107;-75
2022/04/05 08:33:43;;;;;;;10.27;3.95;;;;;;;15.76;38.21;97343.16;4427203;32;20154;-74
2022/04/05 08:36:10;;;;;;;11.35;4.90;;;;;;;15.65;38.58;97337.91;4440794;32;20108;-75
2022/04/05 08:38:41;;;;;;;10.65;3.95;;;;;;;15.59;38.94;97343.53;4426639;32;20494;-74
2022/04/05 08:41:12;;;;;;;9.60;3.33;;;;;;;15.25;38.49;97345.19;4427003;32;20150;-74
2022/04/05 08:43:43;;;;;;;9.23;3.80;;;;;;;15.10;39.05;97346.28;4439874;32;20097;-75
2022/04/05 08:46:10;;;;;;;11.98;4.15;;;;;;;15.25;39.20;97356.41;4426546;32;20162;-74
2022/04/05 08:48:38;;;;;;;10.88;4.60;;;;;;;15.07;38.67;97344.72;4440614;32;20158;-74
2022/04/05 08:51:06;;;;;;;9.10;3.53;;;;;;;15.33;38.63;97348.06;4426515;32;20480;-74
2022/04/05 08:53:35;;;;;;;9.40;4.00;;;;;;;15.29;39.18;97354.41;4439725;32;20089;-74
2022/04/05 08:56:03;;;;;;;9.15;4.00;;;;;;;15.77;39.08;97351.78;4440351;32;20177;-73
2022/04/05 08:58:30;;;;;;;9.90;4.07;;;;;;;15.69;39.26;97351.50;4438989;32;20101;-74
2022/04/05 09:00:57;;;;;;;10.05;3.65;;;;;;;16.59;37.15;97350.69;4440155;32;20094;-74
2022/04/05 09:03:24;;;;;;;9.85;4.18;;;;;;;16.28;37.63;97352.22;4439711;32;20085;-74
2022/04/05 09:05:52;;;;;;;9.07;4.00;;;;;;;16.16;37.80;97355.72;4439976;32;20117;-74
2022/04/05 09:08:24;;;;;;;8.55;3.45;;;;;;;16.02;38.09;97353.34;4440958;32;20097;-74
2022/04/05 09:11:03;;;;;;;9.13;3.70;;;;;;;16.75;38.31;97352.91;4440470;32;20094;-75
2022/04/05 09:13:30;;;;;;;9.20;3.30;;;;;;;16.49;35.99;97358.38;4439823;32;20399;-74
2022/04/05 09:15:59;;;;;;;11.60;3.92;;;;;;;16.03;36.07;97366.25;4440216;32;20124;-74
2022/04/05 09:18:39;;;;;;;9.40;3.45;;;;;;;15.83;37.23;97359.94;4440474;32;20084;-75
2022/04/05 09:21:08;;;;;;;8.70;3.70;;;;;;;16.03;37.14;97355.00;4439873;32;20162;-74
2022/04/05 09:23:41;;;;;;;10.10;4.25;;;;;;;16.13;37.79;97351.59;4425772;32;20433;-74
2022/04/05 09:26:10;;;;;;;7.93;3.60;;;;;;;15.99;39.50;97351.81;4440241;32;20161;-74
2022/04/05 09:28:42;;;;;;;10.77;3.70;;;;;;;16.34;36.91;97350.91;4440019;32;20173;-74
2022/04/05 09:31:11;;;;;;;8.23;3.40;;;;;;;16.84;37.09;97344.38;4440264;32;20103;-75
2022/04/05 09:33:52;;;;;;;7.10;3.00;;;;;;;16.80;35.43;97342.97;4439318;32;20602;-76
2022/04/05 09:36:19;;;;;;;10.57;3.53;;;;;;;16.31;36.71;97346.75;4426698;32;20156;-75
2022/04/05 09:38:46;;;;;;;8.80;3.58;;;;;;;16.62;35.41;97342.63;4440519;32;20205;-75
2022/04/05 09:41:22;;;;;;;7.70;3.58;;;;;;;16.97;35.85;97345.06;4439817;32;20132;-75
2022/04/05 09:43:50;;;;;;;10.73;3.80;;;;;;;17.42;35.17;97344.09;4425763;32;20104;-76
2022/04/05 09:46:17;;;;;;;9.18;3.85;;;;;;;17.41;35.45;97345.88;4425850;32;20120;-76
2022/04/05 09:48:46;;;;;;;9.15;3.53;;;;;;;18.07;34.45;97346.47;4439809;32;20094;-74
2022/04/05 09:51:17;;;;;;;8.88;3.83;;;;;;;18.34;33.27;97347.72;4440061;32;20380;-75
2022/04/05 09:53:47;;;;;;;9.07;3.75;;;;;;;17.62;35.30;97343.28;4439386;32;20121;-74
2022/04/05 09:56:30;;;;;;;7.80;3.60;;;;;;;17.57;34.82;97351.50;4439826;32;20156;-74
2022/04/05 09:59:03;;;;;;;9.60;3.58;;;;;;;17.74;35.26;97347.50;4440460;32;20136;-74
2022/04/05 10:01:32;;;;;;;9.20;3.70;;;;;;;18.29;33.58;97345.53;4426333;32;20111;-75
2022/04/05 10:04:08;;;;;;;8.38;3.65;;;;;;;18.43;32.82;97350.38;4439244;32;20108;-74
2022/04/05 10:06:39;;;;;;;8.38;3.50;;;;;;;18.55;33.19;97347.66;4440065;32;20105;-74
2022/04/05 10:09:07;;;;;;;8.27;2.92;;;;;;;18.33;33.42;97348.69;4439931;32;20089;-74
2022/04/05 10:11:38;;;;;;;8.23;3.20;;;;;;;18.93;32.01;97344.38;4439928;32;20454;-75
2022/04/05 10:14:13;;;;;;;6.95;3.17;;;;;;;19.15;31.64;97343.31;4439359;32;20090;-74
2022/04/05 10:16:45;;;;;;;9.68;4.35;;;;;;;19.22;31.47;97345.22;4439728;32;20163;-75
2022/04/05 10:19:13;;;;;;;7.70;2.87;;;;;;;19.86;31.43;97351.72;4440181;32;20089;-75
2022/04/05 10:21:41;;;;;;;7.37;1.90;;;;;;;19.94;29.50;97357.09;4440236;32;20104;-75
2022/04/05 10:24:11;;;;;;;8.73;2.87;;;;;;;19.30;27.75;97342.78;4425084;32;20164;-76
2022/04/05 10:26:40;;;;;;;7.78;2.20;;;;;;;19.81;28.47;97346.09;4426141;32;20164;-76
2022/04/05 10:29:09;;;;;;;5.05;2.00;;;;;;;19.30;28.68;97336.72;4426190;32;20121;-75
2022/04/05 10:31:45;;;;;;;6.05;2.10;;;;;;;19.29;28.67;97343.75;4425422;32;20093;-75
2022/04/05 10:34:16;;;;;;;5.60;2.08;;;;;;;18.76;28.79;97344.06;4439161;32;20097;-75
2022/04/05 10:37:09;;;;;;;6.12;2.30;;;;;;;18.28;29.00;97340.41;4439680;32;20117;-75
2022/04/05 10:39:39;;;;;;;6.40;2.58;;;;;;;17.92;29.95;97345.16;4440032;32;20116;-76
2022/04/05 10:42:09;;;;;;;13.20;6.18;;;;;;;18.07;29.54;97340.44;4426562;32;20096;-78
2022/04/05 10:44:37;;;;;;;8.68;3.25;;;;;;;18.45;29.11;97339.78;4438879;32;20429;-78
2022/04/05 10:47:06;;;;;;;7.97;3.25;;;;;;;19.11;28.91;97337.53;4426020;32;20456;-77
2022/04/05 10:49:54;;;;;;;7.15;3.55;;;;;;;18.47;28.70;97338.69;4428971;32;20097;-78
2022/04/05 10:52:32;;;;;;;6.78;2.22;;;;;;;18.21;28.92;97335.72;4439838;32;20172;-78
2022/04/05 10:55:04;;;;;;;3.25;1.80;;;;;;;18.58;28.85;97337.78;4439315;32;20128;-78
2022/04/05 10:57:34;;;;;;;5.18;2.00;;;;;;;18.09;29.48;97347.19;4439202;32;20444;-78
2022/04/05 11:00:04;;;;;;;5.68;2.10;;;;;;;17.46;30.35;97343.72;4439949;32;20748;-78
2022/04/05 11:02:45;;;;;;;5.18;2.10;;;;;;;17.33;30.89;97343.91;4439661;32;20138;-78
2022/04/05 11:05:18;;;;;;;5.97;2.10;;;;;;;17.26;31.68;97354.94;4439125;32;20105;-78
2022/04/05 11:07:51;;;;;;;6.07;2.45;;;;;;;17.27;30.57;97354.81;4439887;32;20093;-78
2022/04/05 11:10:20;;;;;;;5.20;2.15;;;;;;;17.17;30.70;97347.84;4439924;32;20119;-78
2022/04/05 11:12:47;;;;;;;7.82;2.58;;;;;;;17.42;30.97;97351.91;4439648;32;20154;-78
2022/04/05 11:15:14;;;;;;;8.32;2.62;;;;;;;17.84;30.85;97345.78;4439284;32;20082;-77
2022/04/05 11:17:42;;;;;;;6.43;2.30;;;;;;;18.11;29.92;97347.91;4439895;32;20149;-78
2022/04/05 11:20:11;;;;;;;3.60;1.87;;;;;;;18.20;29.41;97346.28;4438995;32;20427;-78
2022/04/05 11:22:39;;;;;;;6.90;2.05;;;;;;;18.14;28.83;97342.41;4439302;32;20503;-78
2022/04/05 11:25:25;;;;;;;4.03;1.80;;;;;;;17.92;29.54;97345.16;4438945;32;20463;-78
2022/04/05 11:27:53;;;;;;;3.97;1.73;;;;;;;18.31;28.35;97338.38;4439143;32;20141;-78
2022/04/05 11:30:49;;;;;;;;;;;;;;;18.70;28.13;97334.13;4428359;32;20093;-79
2022/04/05 11:33:32;;;;;;;6.93;1.70;;;;;;;18.70;28.66;97323.69;4437885;32;19997;-79
2022/04/05 11:36:10;;;;;;;4.07;1.70;;;;;;;18.58;29.32;97329.94;4439150;32;20420;-78
2022/04/05 11:38:43;;;;;;;2.58;1.40;;;;;;;18.93;28.60;97326.91;4439522;32;20104;-78